sensor_id;sensor_type;location;lat;lon;timestamp;P1;durP1;ratioP1;P2;durP2;ratioP2
62863;SDS011;48954;59.950;11.014;2023-12-29T00:01:17;16.70;;;8.60;;
62863;SDS011;48954;59.950;11.014;2023-12-29T00:03:44;7.10;;;4.60;;
62863;SDS011;48954;59.950;11.014;2023-12-29T00:06:10;9.00;;;4.40;;
62863;SDS011;48954;59.950;11.014;2023-12-29T00:08:36;6.30;;;3.10;;
62863;SDS011;48954;59.950;11.014;2023-12-29T00:11:02;9.40;;;4.90;;
62863;SDS011;48954;59.950;11.014;2023-12-29T00:13:28;7.00;;;3.10;;
62863;SDS011;48954;59.950;11.014;2023-12-29T00:15:55;8.10;;;4.00;;
62863;SDS011;48954;59.950;11.014;2023-12-29T00:18:21;6.30;;;2.90;;
62863;SDS011;48954;59.950;11.014;2023-12-29T00:20:47;5.70;;;2.50;;
62863;SDS011;48954;59.950;11.014;2023-12-29T00:23:14;9.90;;;5.00;;
62863;SDS011;48954;59.950;11.014;2023-12-29T00:25:41;6.90;;;3.30;;
62863;SDS011;48954;59.950;11.014;2023-12-29T00:28:06;14.30;;;6.60;;
62863;SDS011;48954;59.950;11.014;2023-12-29T00:30:32;9.70;;;4.40;;
62863;SDS011;48954;59.950;11.014;2023-12-29T00:32:58;4.40;;;3.00;;
62863;SDS011;48954;59.950;11.014;2023-12-29T00:35:24;6.30;;;3.10;;
62863;SDS011;48954;59.950;11.014;2023-12-29T00:37:50;8.30;;;4.90;;
62863;SDS011;48954;59.950;11.014;2023-12-29T00:40:16;11.40;;;6.00;;
62863;SDS011;48954;59.950;11.014;2023-12-29T00:42:42;9.00;;;4.40;;
62863;SDS011;48954;59.950;11.014;2023-12-29T00:45:08;9.30;;;4.70;;
62863;SDS011;48954;59.950;11.014;2023-12-29T00:47:34;9.40;;;3.50;;
62863;SDS011;48954;59.950;11.014;2023-12-29T00:50:00;7.70;;;3.60;;
62863;SDS011;48954;59.950;11.014;2023-12-29T00:52:30;9.10;;;3.50;;
62863;SDS011;48954;59.950;11.014;2023-12-29T00:55:02;5.50;;;3.10;;
62863;SDS011;48954;59.950;11.014;2023-12-29T00:57:29;7.10;;;2.80;;
62863;SDS011;48954;59.950;11.014;2023-12-29T00:59:56;5.80;;;2.90;;
62863;SDS011;48954;59.950;11.014;2023-12-29T01:02:22;6.00;;;3.50;;
62863;SDS011;48954;59.950;11.014;2023-12-29T01:04:48;11.20;;;4.20;;
62863;SDS011;48954;59.950;11.014;2023-12-29T01:07:14;5.60;;;2.10;;
62863;SDS011;48954;59.950;11.014;2023-12-29T01:12:08;3.70;;;2.20;;
62863;SDS011;48954;59.950;11.014;2023-12-29T01:14:34;4.40;;;2.50;;
62863;SDS011;48954;59.950;11.014;2023-12-29T01:17:00;3.80;;;1.60;;
62863;SDS011;48954;59.950;11.014;2023-12-29T01:19:26;3.00;;;2.00;;
62863;SDS011;48954;59.950;11.014;2023-12-29T01:21:52;3.90;;;2.10;;
62863;SDS011;48954;59.950;11.014;2023-12-29T01:24:18;3.40;;;1.40;;
62863;SDS011;48954;59.950;11.014;2023-12-29T01:29:12;3.10;;;1.50;;
62863;SDS011;48954;59.950;11.014;2023-12-29T01:31:39;5.60;;;2.70;;
62863;SDS011;48954;59.950;11.014;2023-12-29T01:34:05;5.10;;;2.10;;
62863;SDS011;48954;59.950;11.014;2023-12-29T01:36:31;3.10;;;1.60;;
62863;SDS011;48954;59.950;11.014;2023-12-29T01:38:57;4.30;;;1.80;;
62863;SDS011;48954;59.950;11.014;2023-12-29T01:41:23;6.30;;;3.20;;
62863;SDS011;48954;59.950;11.014;2023-12-29T01:46:31;2.80;;;1.50;;
62863;SDS011;48954;59.950;11.014;2023-12-29T01:48:59;6.30;;;2.20;;
62863;SDS011;48954;59.950;11.014;2023-12-29T01:51:34;3.30;;;1.00;;
62863;SDS011;48954;59.950;11.014;2023-12-29T01:53:59;5.00;;;2.20;;
62863;SDS011;48954;59.950;11.014;2023-12-29T01:56:26;5.80;;;1.90;;
62863;SDS011;48954;59.950;11.014;2023-12-29T01:58:52;2.20;;;0.90;;
62863;SDS011;48954;59.950;11.014;2023-12-29T02:01:21;3.60;;;1.70;;
62863;SDS011;48954;59.950;11.014;2023-12-29T02:03:48;3.20;;;1.30;;
62863;SDS011;48954;59.950;11.014;2023-12-29T02:06:15;4.70;;;1.70;;
62863;SDS011;48954;59.950;11.014;2023-12-29T02:08:45;3.20;;;1.30;;
62863;SDS011;48954;59.950;11.014;2023-12-29T02:11:16;3.80;;;1.40;;
62863;SDS011;48954;59.950;11.014;2023-12-29T02:14:10;2.10;;;1.00;;
62863;SDS011;48954;59.950;11.014;2023-12-29T02:19:37;3.60;;;1.00;;
62863;SDS011;48954;59.950;11.014;2023-12-29T02:22:20;3.10;;;1.40;;
62863;SDS011;48954;59.950;11.014;2023-12-29T02:28:27;2.20;;;1.00;;
62863;SDS011;48954;59.950;11.014;2023-12-29T02:33:43;1.90;;;0.70;;
62863;SDS011;48954;59.950;11.014;2023-12-29T02:36:15;2.50;;;0.70;;
62863;SDS011;48954;59.950;11.014;2023-12-29T02:38:44;1.80;;;0.90;;
62863;SDS011;48954;59.950;11.014;2023-12-29T02:41:13;2.30;;;0.80;;
62863;SDS011;48954;59.950;11.014;2023-12-29T02:43:43;4.60;;;1.40;;
62863;SDS011;48954;59.950;11.014;2023-12-29T02:46:12;1.80;;;0.80;;
62863;SDS011;48954;59.950;11.014;2023-12-29T02:48:52;1.70;;;1.00;;
62863;SDS011;48954;59.950;11.014;2023-12-29T02:51:20;2.00;;;1.00;;
62863;SDS011;48954;59.950;11.014;2023-12-29T02:53:47;1.20;;;0.70;;
62863;SDS011;48954;59.950;11.014;2023-12-29T02:56:22;2.60;;;0.90;;
62863;SDS011;48954;59.950;11.014;2023-12-29T02:58:48;2.40;;;0.90;;
62863;SDS011;48954;59.950;11.014;2023-12-29T03:01:15;2.40;;;1.00;;
62863;SDS011;48954;59.950;11.014;2023-12-29T03:03:46;1.60;;;0.50;;
62863;SDS011;48954;59.950;11.014;2023-12-29T03:06:16;2.80;;;0.80;;
62863;SDS011;48954;59.950;11.014;2023-12-29T03:08:44;2.00;;;0.80;;
62863;SDS011;48954;59.950;11.014;2023-12-29T03:11:25;2.10;;;0.60;;
62863;SDS011;48954;59.950;11.014;2023-12-29T03:13:53;1.90;;;0.70;;
62863;SDS011;48954;59.950;11.014;2023-12-29T03:16:19;1.90;;;0.90;;
62863;SDS011;48954;59.950;11.014;2023-12-29T03:18:46;0.90;;;0.60;;
62863;SDS011;48954;59.950;11.014;2023-12-29T03:21:12;2.00;;;0.90;;
62863;SDS011;48954;59.950;11.014;2023-12-29T03:23:38;1.70;;;0.60;;
62863;SDS011;48954;59.950;11.014;2023-12-29T03:26:06;1.40;;;0.60;;
62863;SDS011;48954;59.950;11.014;2023-12-29T03:28:32;3.50;;;0.80;;
62863;SDS011;48954;59.950;11.014;2023-12-29T03:30:57;1.20;;;0.70;;
62863;SDS011;48954;59.950;11.014;2023-12-29T03:33:23;2.30;;;1.00;;
62863;SDS011;48954;59.950;11.014;2023-12-29T03:35:50;1.90;;;0.40;;
62863;SDS011;48954;59.950;11.014;2023-12-29T03:38:30;2.00;;;0.70;;
62863;SDS011;48954;59.950;11.014;2023-12-29T03:41:00;1.80;;;0.80;;
62863;SDS011;48954;59.950;11.014;2023-12-29T03:43:31;1.80;;;0.60;;
62863;SDS011;48954;59.950;11.014;2023-12-29T03:45:59;2.90;;;0.60;;
62863;SDS011;48954;59.950;11.014;2023-12-29T03:48:28;2.20;;;0.80;;
62863;SDS011;48954;59.950;11.014;2023-12-29T03:50:56;1.70;;;0.70;;
62863;SDS011;48954;59.950;11.014;2023-12-29T03:53:22;1.60;;;0.80;;
62863;SDS011;48954;59.950;11.014;2023-12-29T03:55:48;1.10;;;0.50;;
62863;SDS011;48954;59.950;11.014;2023-12-29T03:58:15;1.30;;;0.50;;
62863;SDS011;48954;59.950;11.014;2023-12-29T04:00:46;1.20;;;0.60;;
62863;SDS011;48954;59.950;11.014;2023-12-29T04:03:13;1.10;;;0.50;;
62863;SDS011;48954;59.950;11.014;2023-12-29T04:05:41;1.50;;;0.70;;
62863;SDS011;48954;59.950;11.014;2023-12-29T04:08:08;1.80;;;1.00;;
62863;SDS011;48954;59.950;11.014;2023-12-29T04:10:37;1.90;;;0.80;;
62863;SDS011;48954;59.950;11.014;2023-12-29T04:13:04;1.40;;;0.50;;
62863;SDS011;48954;59.950;11.014;2023-12-29T04:15:30;0.90;;;0.50;;
62863;SDS011;48954;59.950;11.014;2023-12-29T04:17:57;1.30;;;0.50;;
62863;SDS011;48954;59.950;11.014;2023-12-29T04:20:27;1.60;;;0.70;;
62863;SDS011;48954;59.950;11.014;2023-12-29T04:22:54;0.80;;;0.40;;
62863;SDS011;48954;59.950;11.014;2023-12-29T04:25:23;1.30;;;0.60;;
62863;SDS011;48954;59.950;11.014;2023-12-29T04:27:51;1.80;;;0.50;;
62863;SDS011;48954;59.950;11.014;2023-12-29T04:30:32;0.90;;;0.50;;
62863;SDS011;48954;59.950;11.014;2023-12-29T04:32:57;1.70;;;0.80;;
62863;SDS011;48954;59.950;11.014;2023-12-29T04:35:23;1.20;;;0.50;;
62863;SDS011;48954;59.950;11.014;2023-12-29T04:37:49;1.40;;;0.60;;
62863;SDS011;48954;59.950;11.014;2023-12-29T04:40:15;1.00;;;0.40;;
62863;SDS011;48954;59.950;11.014;2023-12-29T04:42:41;1.00;;;0.40;;
62863;SDS011;48954;59.950;11.014;2023-12-29T04:45:07;0.90;;;0.40;;
62863;SDS011;48954;59.950;11.014;2023-12-29T04:47:33;2.00;;;0.50;;
62863;SDS011;48954;59.950;11.014;2023-12-29T04:49:59;0.80;;;0.30;;
62863;SDS011;48954;59.950;11.014;2023-12-29T04:52:25;1.40;;;0.60;;
62863;SDS011;48954;59.950;11.014;2023-12-29T04:54:51;1.20;;;0.50;;
62863;SDS011;48954;59.950;11.014;2023-12-29T04:57:17;0.90;;;0.40;;
62863;SDS011;48954;59.950;11.014;2023-12-29T04:59:43;1.50;;;0.40;;
62863;SDS011;48954;59.950;11.014;2023-12-29T05:02:09;3.20;;;0.60;;
62863;SDS011;48954;59.950;11.014;2023-12-29T05:04:35;1.10;;;0.50;;
62863;SDS011;48954;59.950;11.014;2023-12-29T05:07:01;0.80;;;0.50;;
62863;SDS011;48954;59.950;11.014;2023-12-29T05:09:26;1.70;;;0.50;;
62863;SDS011;48954;59.950;11.014;2023-12-29T05:11:52;1.50;;;0.70;;
62863;SDS011;48954;59.950;11.014;2023-12-29T05:14:18;1.60;;;0.60;;
62863;SDS011;48954;59.950;11.014;2023-12-29T05:16:44;0.90;;;0.40;;
62863;SDS011;48954;59.950;11.014;2023-12-29T05:19:10;1.10;;;0.20;;
62863;SDS011;48954;59.950;11.014;2023-12-29T05:21:36;1.20;;;0.60;;
62863;SDS011;48954;59.950;11.014;2023-12-29T05:24:02;0.80;;;0.40;;
62863;SDS011;48954;59.950;11.014;2023-12-29T05:26:28;1.10;;;0.60;;
62863;SDS011;48954;59.950;11.014;2023-12-29T05:28:54;0.80;;;0.40;;
62863;SDS011;48954;59.950;11.014;2023-12-29T05:31:19;2.20;;;1.00;;
62863;SDS011;48954;59.950;11.014;2023-12-29T05:33:45;0.80;;;0.30;;
62863;SDS011;48954;59.950;11.014;2023-12-29T05:36:11;0.90;;;0.30;;
62863;SDS011;48954;59.950;11.014;2023-12-29T05:38:37;2.00;;;0.60;;
62863;SDS011;48954;59.950;11.014;2023-12-29T05:41:03;0.60;;;0.30;;
62863;SDS011;48954;59.950;11.014;2023-12-29T05:43:30;0.80;;;0.50;;
62863;SDS011;48954;59.950;11.014;2023-12-29T05:45:57;1.30;;;0.50;;
62863;SDS011;48954;59.950;11.014;2023-12-29T05:48:23;1.80;;;0.70;;
62863;SDS011;48954;59.950;11.014;2023-12-29T05:50:50;1.90;;;0.80;;
62863;SDS011;48954;59.950;11.014;2023-12-29T05:53:35;1.90;;;0.70;;
62863;SDS011;48954;59.950;11.014;2023-12-29T05:56:01;0.90;;;0.50;;
62863;SDS011;48954;59.950;11.014;2023-12-29T05:58:27;2.00;;;0.60;;
62863;SDS011;48954;59.950;11.014;2023-12-29T06:00:56;2.20;;;0.70;;
62863;SDS011;48954;59.950;11.014;2023-12-29T06:03:22;1.90;;;0.90;;
62863;SDS011;48954;59.950;11.014;2023-12-29T06:05:48;2.80;;;1.00;;
62863;SDS011;48954;59.950;11.014;2023-12-29T06:08:14;1.40;;;0.60;;
62863;SDS011;48954;59.950;11.014;2023-12-29T06:10:40;2.00;;;0.50;;
62863;SDS011;48954;59.950;11.014;2023-12-29T06:13:06;0.70;;;0.40;;
62863;SDS011;48954;59.950;11.014;2023-12-29T06:15:33;1.60;;;0.60;;
62863;SDS011;48954;59.950;11.014;2023-12-29T06:17:59;1.20;;;0.50;;
62863;SDS011;48954;59.950;11.014;2023-12-29T06:20:25;1.00;;;0.40;;
62863;SDS011;48954;59.950;11.014;2023-12-29T06:22:52;1.30;;;0.60;;
62863;SDS011;48954;59.950;11.014;2023-12-29T06:25:19;2.20;;;1.00;;
62863;SDS011;48954;59.950;11.014;2023-12-29T06:27:45;2.90;;;0.80;;
62863;SDS011;48954;59.950;11.014;2023-12-29T06:30:11;1.80;;;0.50;;
62863;SDS011;48954;59.950;11.014;2023-12-29T06:32:37;2.20;;;0.80;;
62863;SDS011;48954;59.950;11.014;2023-12-29T06:35:04;1.30;;;0.60;;
62863;SDS011;48954;59.950;11.014;2023-12-29T06:37:30;1.20;;;0.60;;
62863;SDS011;48954;59.950;11.014;2023-12-29T06:39:56;1.40;;;0.60;;
62863;SDS011;48954;59.950;11.014;2023-12-29T06:42:23;1.50;;;0.60;;
62863;SDS011;48954;59.950;11.014;2023-12-29T06:44:49;1.20;;;0.60;;
62863;SDS011;48954;59.950;11.014;2023-12-29T06:47:16;1.10;;;0.50;;
62863;SDS011;48954;59.950;11.014;2023-12-29T06:49:42;2.50;;;0.50;;
62863;SDS011;48954;59.950;11.014;2023-12-29T06:52:08;2.60;;;0.90;;
62863;SDS011;48954;59.950;11.014;2023-12-29T06:54:48;0.50;;;0.20;;
62863;SDS011;48954;59.950;11.014;2023-12-29T06:57:15;1.40;;;0.60;;
62863;SDS011;48954;59.950;11.014;2023-12-29T06:59:41;2.70;;;0.70;;
62863;SDS011;48954;59.950;11.014;2023-12-29T07:02:08;1.00;;;0.60;;
62863;SDS011;48954;59.950;11.014;2023-12-29T07:04:35;1.30;;;0.60;;
62863;SDS011;48954;59.950;11.014;2023-12-29T07:07:04;2.50;;;0.90;;
62863;SDS011;48954;59.950;11.014;2023-12-29T07:09:30;2.80;;;1.30;;
62863;SDS011;48954;59.950;11.014;2023-12-29T07:11:55;3.20;;;1.40;;
62863;SDS011;48954;59.950;11.014;2023-12-29T07:14:22;3.30;;;0.90;;
62863;SDS011;48954;59.950;11.014;2023-12-29T07:16:48;2.50;;;1.10;;
62863;SDS011;48954;59.950;11.014;2023-12-29T07:19:14;2.90;;;1.10;;
62863;SDS011;48954;59.950;11.014;2023-12-29T07:21:40;3.70;;;1.40;;
62863;SDS011;48954;59.950;11.014;2023-12-29T07:24:07;3.30;;;1.60;;
62863;SDS011;48954;59.950;11.014;2023-12-29T07:26:34;2.50;;;0.90;;
62863;SDS011;48954;59.950;11.014;2023-12-29T07:29:03;2.80;;;1.20;;
62863;SDS011;48954;59.950;11.014;2023-12-29T07:31:29;1.20;;;0.60;;
62863;SDS011;48954;59.950;11.014;2023-12-29T07:33:55;2.40;;;1.30;;
62863;SDS011;48954;59.950;11.014;2023-12-29T07:36:23;3.00;;;1.10;;
62863;SDS011;48954;59.950;11.014;2023-12-29T07:38:49;3.00;;;1.20;;
62863;SDS011;48954;59.950;11.014;2023-12-29T07:41:24;6.60;;;2.30;;
62863;SDS011;48954;59.950;11.014;2023-12-29T07:43:52;10.00;;;3.90;;
62863;SDS011;48954;59.950;11.014;2023-12-29T07:46:25;8.10;;;3.60;;
62863;SDS011;48954;59.950;11.014;2023-12-29T07:48:52;5.00;;;2.10;;
62863;SDS011;48954;59.950;11.014;2023-12-29T07:51:18;4.70;;;2.20;;
62863;SDS011;48954;59.950;11.014;2023-12-29T07:53:44;5.80;;;3.00;;
62863;SDS011;48954;59.950;11.014;2023-12-29T07:56:11;6.10;;;2.90;;
62863;SDS011;48954;59.950;11.014;2023-12-29T07:58:37;5.80;;;2.60;;
62863;SDS011;48954;59.950;11.014;2023-12-29T08:01:03;5.40;;;2.30;;
62863;SDS011;48954;59.950;11.014;2023-12-29T08:03:30;3.50;;;2.00;;
62863;SDS011;48954;59.950;11.014;2023-12-29T08:05:56;3.20;;;1.70;;
62863;SDS011;48954;59.950;11.014;2023-12-29T08:08:25;5.30;;;2.30;;
62863;SDS011;48954;59.950;11.014;2023-12-29T08:10:53;6.50;;;3.40;;
62863;SDS011;48954;59.950;11.014;2023-12-29T08:13:20;5.20;;;3.10;;
62863;SDS011;48954;59.950;11.014;2023-12-29T08:15:46;4.60;;;2.10;;
62863;SDS011;48954;59.950;11.014;2023-12-29T08:18:13;6.70;;;2.40;;
62863;SDS011;48954;59.950;11.014;2023-12-29T08:20:39;3.50;;;1.70;;
62863;SDS011;48954;59.950;11.014;2023-12-29T08:23:07;6.50;;;2.20;;
62863;SDS011;48954;59.950;11.014;2023-12-29T08:25:33;4.40;;;2.00;;
62863;SDS011;48954;59.950;11.014;2023-12-29T08:27:59;3.60;;;2.20;;
62863;SDS011;48954;59.950;11.014;2023-12-29T08:30:25;2.60;;;1.50;;
62863;SDS011;48954;59.950;11.014;2023-12-29T08:32:51;5.50;;;1.90;;
62863;SDS011;48954;59.950;11.014;2023-12-29T08:35:18;4.70;;;2.00;;
62863;SDS011;48954;59.950;11.014;2023-12-29T08:37:45;4.30;;;2.30;;
62863;SDS011;48954;59.950;11.014;2023-12-29T08:40:12;6.80;;;2.50;;
62863;SDS011;48954;59.950;11.014;2023-12-29T08:42:40;4.60;;;2.50;;
62863;SDS011;48954;59.950;11.014;2023-12-29T08:45:08;3.90;;;1.60;;
62863;SDS011;48954;59.950;11.014;2023-12-29T08:47:34;3.90;;;2.00;;
62863;SDS011;48954;59.950;11.014;2023-12-29T08:50:00;3.70;;;1.70;;
62863;SDS011;48954;59.950;11.014;2023-12-29T08:52:27;7.10;;;2.60;;
62863;SDS011;48954;59.950;11.014;2023-12-29T08:54:54;2.90;;;1.50;;
62863;SDS011;48954;59.950;11.014;2023-12-29T08:57:21;3.40;;;1.70;;
62863;SDS011;48954;59.950;11.014;2023-12-29T08:59:48;5.50;;;1.80;;
62863;SDS011;48954;59.950;11.014;2023-12-29T09:02:14;3.80;;;1.80;;
62863;SDS011;48954;59.950;11.014;2023-12-29T09:04:41;4.50;;;2.10;;
62863;SDS011;48954;59.950;11.014;2023-12-29T09:07:07;2.20;;;1.00;;
62863;SDS011;48954;59.950;11.014;2023-12-29T09:09:34;3.00;;;1.50;;
62863;SDS011;48954;59.950;11.014;2023-12-29T09:12:00;2.40;;;1.40;;
62863;SDS011;48954;59.950;11.014;2023-12-29T09:14:27;3.20;;;1.50;;
62863;SDS011;48954;59.950;11.014;2023-12-29T09:16:53;2.40;;;1.10;;
62863;SDS011;48954;59.950;11.014;2023-12-29T09:19:19;3.80;;;1.60;;
62863;SDS011;48954;59.950;11.014;2023-12-29T09:21:45;2.60;;;1.20;;
62863;SDS011;48954;59.950;11.014;2023-12-29T09:24:12;1.70;;;0.90;;
62863;SDS011;48954;59.950;11.014;2023-12-29T09:26:38;3.00;;;1.30;;
62863;SDS011;48954;59.950;11.014;2023-12-29T09:29:07;3.40;;;1.30;;
62863;SDS011;48954;59.950;11.014;2023-12-29T09:31:33;1.60;;;0.70;;
62863;SDS011;48954;59.950;11.014;2023-12-29T09:33:59;5.60;;;1.80;;
62863;SDS011;48954;59.950;11.014;2023-12-29T09:36:27;1.90;;;1.00;;
62863;SDS011;48954;59.950;11.014;2023-12-29T09:38:53;2.70;;;0.80;;
62863;SDS011;48954;59.950;11.014;2023-12-29T09:41:20;3.40;;;1.30;;
62863;SDS011;48954;59.950;11.014;2023-12-29T09:43:49;2.40;;;1.20;;
62863;SDS011;48954;59.950;11.014;2023-12-29T09:46:17;1.40;;;0.70;;
62863;SDS011;48954;59.950;11.014;2023-12-29T09:48:47;3.30;;;1.30;;
62863;SDS011;48954;59.950;11.014;2023-12-29T09:51:16;4.70;;;1.60;;
62863;SDS011;48954;59.950;11.014;2023-12-29T09:53:46;3.90;;;1.70;;
62863;SDS011;48954;59.950;11.014;2023-12-29T09:56:13;2.50;;;1.10;;
62863;SDS011;48954;59.950;11.014;2023-12-29T09:58:48;3.90;;;1.50;;
62863;SDS011;48954;59.950;11.014;2023-12-29T10:01:18;2.90;;;1.20;;
62863;SDS011;48954;59.950;11.014;2023-12-29T10:03:46;2.40;;;0.90;;
62863;SDS011;48954;59.950;11.014;2023-12-29T10:06:16;3.10;;;1.10;;
62863;SDS011;48954;59.950;11.014;2023-12-29T10:08:49;2.40;;;1.10;;
62863;SDS011;48954;59.950;11.014;2023-12-29T10:11:21;3.30;;;1.20;;
62863;SDS011;48954;59.950;11.014;2023-12-29T10:13:50;2.70;;;1.00;;
62863;SDS011;48954;59.950;11.014;2023-12-29T10:16:41;1.90;;;1.00;;
62863;SDS011;48954;59.950;11.014;2023-12-29T10:19:29;2.00;;;1.00;;
62863;SDS011;48954;59.950;11.014;2023-12-29T10:25:31;1.60;;;0.50;;
62863;SDS011;48954;59.950;11.014;2023-12-29T10:28:00;3.60;;;1.20;;
62863;SDS011;48954;59.950;11.014;2023-12-29T10:30:27;2.70;;;0.90;;
62863;SDS011;48954;59.950;11.014;2023-12-29T10:32:55;1.60;;;0.80;;
62863;SDS011;48954;59.950;11.014;2023-12-29T10:35:23;2.30;;;1.20;;
62863;SDS011;48954;59.950;11.014;2023-12-29T10:37:51;4.10;;;2.00;;
62863;SDS011;48954;59.950;11.014;2023-12-29T10:40:19;2.60;;;1.50;;
62863;SDS011;48954;59.950;11.014;2023-12-29T10:42:52;5.50;;;2.40;;
62863;SDS011;48954;59.950;11.014;2023-12-29T10:45:22;4.40;;;1.90;;
62863;SDS011;48954;59.950;11.014;2023-12-29T10:47:49;2.30;;;1.20;;
62863;SDS011;48954;59.950;11.014;2023-12-29T10:50:18;2.90;;;1.70;;
62863;SDS011;48954;59.950;11.014;2023-12-29T10:52:46;3.90;;;1.50;;
62863;SDS011;48954;59.950;11.014;2023-12-29T10:55:15;4.60;;;2.00;;
62863;SDS011;48954;59.950;11.014;2023-12-29T10:57:41;4.70;;;2.30;;
62863;SDS011;48954;59.950;11.014;2023-12-29T11:00:24;5.10;;;1.50;;
62863;SDS011;48954;59.950;11.014;2023-12-29T11:02:56;6.00;;;2.50;;
62863;SDS011;48954;59.950;11.014;2023-12-29T11:05:24;6.40;;;2.50;;
62863;SDS011;48954;59.950;11.014;2023-12-29T11:07:54;5.10;;;1.90;;
62863;SDS011;48954;59.950;11.014;2023-12-29T11:10:21;4.80;;;1.80;;
62863;SDS011;48954;59.950;11.014;2023-12-29T11:12:49;5.30;;;1.90;;
62863;SDS011;48954;59.950;11.014;2023-12-29T11:15:17;2.90;;;1.10;;
62863;SDS011;48954;59.950;11.014;2023-12-29T11:17:45;3.10;;;1.20;;
62863;SDS011;48954;59.950;11.014;2023-12-29T11:20:18;2.60;;;1.10;;
62863;SDS011;48954;59.950;11.014;2023-12-29T11:22:47;3.10;;;1.30;;
62863;SDS011;48954;59.950;11.014;2023-12-29T11:25:13;4.80;;;1.70;;
62863;SDS011;48954;59.950;11.014;2023-12-29T11:27:42;2.90;;;1.50;;
62863;SDS011;48954;59.950;11.014;2023-12-29T11:30:09;7.60;;;2.60;;
62863;SDS011;48954;59.950;11.014;2023-12-29T11:32:57;4.20;;;1.80;;
62863;SDS011;48954;59.950;11.014;2023-12-29T11:35:33;2.90;;;1.50;;
62863;SDS011;48954;59.950;11.014;2023-12-29T11:40:52;5.00;;;1.50;;
62863;SDS011;48954;59.950;11.014;2023-12-29T11:43:26;5.00;;;2.00;;
62863;SDS011;48954;59.950;11.014;2023-12-29T11:45:53;4.40;;;2.00;;
62863;SDS011;48954;59.950;11.014;2023-12-29T11:51:29;3.80;;;1.70;;
62863;SDS011;48954;59.950;11.014;2023-12-29T11:53:55;5.10;;;2.00;;
62863;SDS011;48954;59.950;11.014;2023-12-29T11:56:23;4.00;;;1.90;;
62863;SDS011;48954;59.950;11.014;2023-12-29T11:58:49;4.20;;;1.70;;
62863;SDS011;48954;59.950;11.014;2023-12-29T12:01:33;3.70;;;1.40;;
62863;SDS011;48954;59.950;11.014;2023-12-29T12:04:01;3.50;;;1.40;;
62863;SDS011;48954;59.950;11.014;2023-12-29T12:06:37;4.60;;;2.10;;
62863;SDS011;48954;59.950;11.014;2023-12-29T12:09:18;5.00;;;1.70;;
62863;SDS011;48954;59.950;11.014;2023-12-29T12:11:48;5.10;;;2.10;;
62863;SDS011;48954;59.950;11.014;2023-12-29T12:17:33;4.70;;;1.60;;
62863;SDS011;48954;59.950;11.014;2023-12-29T12:20:04;2.60;;;1.10;;
62863;SDS011;48954;59.950;11.014;2023-12-29T12:22:33;2.30;;;1.10;;
62863;SDS011;48954;59.950;11.014;2023-12-29T12:25:03;4.70;;;1.70;;
62863;SDS011;48954;59.950;11.014;2023-12-29T12:27:30;4.40;;;2.00;;
62863;SDS011;48954;59.950;11.014;2023-12-29T12:29:57;5.20;;;2.00;;
62863;SDS011;48954;59.950;11.014;2023-12-29T12:32:27;3.50;;;1.60;;
62863;SDS011;48954;59.950;11.014;2023-12-29T12:34:55;5.10;;;2.30;;
62863;SDS011;48954;59.950;11.014;2023-12-29T12:37:23;3.30;;;1.40;;
62863;SDS011;48954;59.950;11.014;2023-12-29T12:39:59;3.60;;;1.50;;
62863;SDS011;48954;59.950;11.014;2023-12-29T12:42:25;1.70;;;0.80;;
62863;SDS011;48954;59.950;11.014;2023-12-29T12:47:44;5.20;;;1.80;;
62863;SDS011;48954;59.950;11.014;2023-12-29T12:50:12;4.40;;;2.10;;
62863;SDS011;48954;59.950;11.014;2023-12-29T12:52:39;4.30;;;1.90;;
62863;SDS011;48954;59.950;11.014;2023-12-29T12:55:06;3.60;;;1.50;;
62863;SDS011;48954;59.950;11.014;2023-12-29T12:57:35;2.60;;;1.40;;
62863;SDS011;48954;59.950;11.014;2023-12-29T13:00:03;7.60;;;2.20;;
62863;SDS011;48954;59.950;11.014;2023-12-29T13:02:29;5.30;;;1.70;;
62863;SDS011;48954;59.950;11.014;2023-12-29T13:04:57;3.30;;;1.20;;
62863;SDS011;48954;59.950;11.014;2023-12-29T13:07:23;2.80;;;1.30;;
62863;SDS011;48954;59.950;11.014;2023-12-29T13:09:50;3.80;;;1.30;;
62863;SDS011;48954;59.950;11.014;2023-12-29T13:12:17;4.10;;;1.50;;
62863;SDS011;48954;59.950;11.014;2023-12-29T13:14:44;3.80;;;1.60;;
62863;SDS011;48954;59.950;11.014;2023-12-29T13:17:11;3.60;;;1.50;;
62863;SDS011;48954;59.950;11.014;2023-12-29T13:19:39;2.70;;;1.00;;
62863;SDS011;48954;59.950;11.014;2023-12-29T13:22:05;3.20;;;1.30;;
62863;SDS011;48954;59.950;11.014;2023-12-29T13:24:35;3.10;;;1.10;;
62863;SDS011;48954;59.950;11.014;2023-12-29T13:27:08;2.20;;;0.90;;
62863;SDS011;48954;59.950;11.014;2023-12-29T13:29:48;2.50;;;1.10;;
62863;SDS011;48954;59.950;11.014;2023-12-29T13:32:17;2.90;;;1.30;;
62863;SDS011;48954;59.950;11.014;2023-12-29T13:34:48;4.20;;;1.70;;
62863;SDS011;48954;59.950;11.014;2023-12-29T13:40:17;3.10;;;1.20;;
62863;SDS011;48954;59.950;11.014;2023-12-29T13:43:23;2.40;;;1.00;;
62863;SDS011;48954;59.950;11.014;2023-12-29T13:45:50;2.10;;;1.10;;
62863;SDS011;48954;59.950;11.014;2023-12-29T13:48:18;2.10;;;1.00;;
62863;SDS011;48954;59.950;11.014;2023-12-29T13:50:45;2.80;;;1.40;;
62863;SDS011;48954;59.950;11.014;2023-12-29T13:53:18;3.70;;;1.50;;
62863;SDS011;48954;59.950;11.014;2023-12-29T13:55:52;3.50;;;1.60;;
62863;SDS011;48954;59.950;11.014;2023-12-29T13:58:21;4.90;;;1.60;;
62863;SDS011;48954;59.950;11.014;2023-12-29T14:00:53;5.60;;;2.40;;
62863;SDS011;48954;59.950;11.014;2023-12-29T14:03:30;5.30;;;2.10;;
62863;SDS011;48954;59.950;11.014;2023-12-29T14:06:03;4.90;;;2.30;;
62863;SDS011;48954;59.950;11.014;2023-12-29T14:08:38;4.80;;;2.20;;
62863;SDS011;48954;59.950;11.014;2023-12-29T14:11:21;4.30;;;2.30;;
62863;SDS011;48954;59.950;11.014;2023-12-29T14:13:48;4.30;;;1.90;;
62863;SDS011;48954;59.950;11.014;2023-12-29T14:16:15;3.80;;;1.60;;
62863;SDS011;48954;59.950;11.014;2023-12-29T14:18:54;5.20;;;2.10;;
62863;SDS011;48954;59.950;11.014;2023-12-29T14:21:30;4.00;;;2.00;;
62863;SDS011;48954;59.950;11.014;2023-12-29T14:24:06;4.10;;;1.80;;
62863;SDS011;48954;59.950;11.014;2023-12-29T14:26:37;7.10;;;2.50;;
62863;SDS011;48954;59.950;11.014;2023-12-29T14:32:08;6.60;;;2.70;;
62863;SDS011;48954;59.950;11.014;2023-12-29T14:37:40;3.00;;;1.70;;
62863;SDS011;48954;59.950;11.014;2023-12-29T14:40:49;5.20;;;2.30;;
62863;SDS011;48954;59.950;11.014;2023-12-29T14:49:03;4.80;;;2.00;;
62863;SDS011;48954;59.950;11.014;2023-12-29T20:19:29;26.00;;;12.00;;
62863;SDS011;48954;59.950;11.014;2023-12-29T20:22:23;21.30;;;10.00;;
62863;SDS011;48954;59.950;11.014;2023-12-29T20:28:13;27.30;;;12.40;;
62863;SDS011;48954;59.950;11.014;2023-12-29T20:48:55;38.50;;;16.40;;
62863;SDS011;48954;59.950;11.014;2023-12-29T20:51:37;36.60;;;16.00;;
62863;SDS011;48954;59.950;11.014;2023-12-29T20:57:08;36.20;;;15.10;;
62863;SDS011;48954;59.950;11.014;2023-12-29T21:00:11;19.60;;;7.90;;
62863;SDS011;48954;59.950;11.014;2023-12-29T21:03:21;18.40;;;7.60;;
62863;SDS011;48954;59.950;11.014;2023-12-29T21:32:07;20.80;;;9.60;;
62863;SDS011;48954;59.950;11.014;2023-12-29T21:41:11;32.90;;;15.60;;
